Airfield :
LOGIN :

Register | Disclaimer

   EN    FR    IT 

 










Legend :    VFR   Marginal VFR   IFR   Intensive IFR   Very Intensive IFR
Visi :
Ceiling :
>= 8 km
>= 3000ft
5 to 8 km
1000 to 3000 ft
1500m to 5 km
500 to 1000 ft
800 to 1500m
200 to 500 ft
< 800m
< 200 ft
Symbols :   Thunderstorms  Fog  Heavy snow  Heavy precipitations  Wind > 20 kt
SIGMETs :     Misc.  Thunderstorms  Icing  Turbulence  Mountain Waves  Volcanic Ashes







- Airport Elevation : 102 ft
- IATA code : EXT
- Download approach charts


EGTE - Exeter

CURRENT METAR :
  • 240820Z 21004KT 170V270 9999 BKN019 18/15 Q1015

EXPIRED METARs :
  • 240750Z VRB03KT 9999 BKN018 18/15 Q1015
  • 240720Z 22004KT 200V260 9999 BKN015 17/15 Q1015
  • 240650Z 18007KT 9999 BKN015 17/15 Q1015
  • 240620Z 19006KT 9999 BKN016 17/15 Q1015
  • 240550Z 20007KT 9999 SCT018 17/15 Q1015

TAF TAF EGTE
Valid from the 24 at 09:00 until the 24 at 18:00 UTC


240755Z 2409/2418 28006KT 9999 BKN018
TEMPO 2409/2418 7000 -RADZ BKN010
No reported NOTAMs for that airfield.



MET'MAP, your aeronautical weather chart ! - Copyright ORBIFLY December 2007 - Disclaimer

ORBIFLY MET'MAP TEAM :

Programming & Development : Alexandra Zaïnal
Concept & Development : Baudouin d'Aumeries
Co-Development & Prog : Marc-Olivier Méhu
Technical & hardware support : Manuel Goepfert

Contact : metmap@orbifly.com




SOURCES & CREDITS :

   NOAA